Time;durP1;ratioP1;P1;durP2;ratioP2;P2;SDS_P1;SDS_P2;PMS_P1;PMS_P2;Temp;Humidity;BMP_temperature;BMP_pressure;BME280_temperature;BME280_humidity;BME280_pressure;Samples;Min_cycle;Max_cycle;Signal;HPM_P1;HPM_P2
2023/02/12 00:01:11;;;;;;;15.60;11.98;;;9.10;86.10;;;;;;6241348;23;20006;-79
2023/02/12 00:03:37;;;;;;;17.42;12.15;;;9.10;86.20;;;;;;6242264;23;20008;-78
2023/02/12 00:06:03;;;;;;;17.98;12.73;;;9.10;86.20;;;;;;6213043;23;20103;-77
2023/02/12 00:08:28;;;;;;;17.48;13.45;;;9.10;86.20;;;;;;6212899;23;20572;-77
2023/02/12 00:10:54;;;;;;;16.20;13.30;;;9.10;86.10;;;;;;6239933;23;20018;-76
2023/02/12 00:13:19;;;;;;;16.95;12.98;;;9.10;86.20;;;;;;6213495;23;20058;-78
2023/02/12 00:15:45;;;;;;;18.58;13.20;;;9.10;86.70;;;;;;6240070;23;20702;-76
2023/02/12 00:18:10;;;;;;;18.67;13.38;;;9.20;86.20;;;;;;6213432;23;20042;-79
2023/02/12 00:20:36;;;;;;;16.23;12.98;;;9.10;86.20;;;;;;6243506;23;19996;-77
2023/02/12 00:23:02;;;;;;;17.52;13.32;;;9.10;86.10;;;;;;6214260;23;20091;-79
2023/02/12 00:25:27;;;;;;;17.02;12.15;;;9.10;86.00;;;;;;6242949;23;20379;-77
2023/02/12 00:27:53;;;;;;;17.00;13.30;;;9.10;86.10;;;;;;6215131;23;20102;-77
2023/02/12 00:30:19;;;;;;;17.23;13.07;;;9.10;86.10;;;;;;6216510;23;20020;-78
2023/02/12 00:32:45;;;;;;;17.05;13.25;;;9.10;86.20;;;;;;6214821;23;20008;-76
2023/02/12 00:35:11;;;;;;;17.13;13.15;;;9.10;86.20;;;;;;6241006;23;20019;-77
2023/02/12 00:37:36;;;;;;;16.75;12.88;;;9.10;86.20;;;;;;6242185;23;20004;-77
2023/02/12 00:40:03;;;;;;;16.75;13.00;;;9.10;86.20;;;;;;6213090;23;20019;-77
2023/02/12 00:42:28;;;;;;;17.05;12.15;;;9.10;86.20;;;;;;6216770;23;20874;-77
2023/02/12 00:44:54;;;;;;;16.95;12.60;;;9.10;86.30;;;;;;6215754;23;20004;-79
2023/02/12 00:47:19;;;;;;;16.27;12.85;;;9.10;86.10;;;;;;6242229;23;20004;-77
2023/02/12 00:49:45;;;;;;;16.95;13.02;;;9.10;86.00;;;;;;6241061;23;20004;-77
2023/02/12 00:52:10;;;;;;;16.63;12.70;;;9.10;86.00;;;;;;6240854;23;20008;-77
2023/02/12 00:54:36;;;;;;;16.45;13.02;;;9.10;86.30;;;;;;6216653;23;20046;-76
2023/02/12 00:57:01;;;;;;;15.93;12.23;;;9.10;86.10;;;;;;6214962;23;20462;-79
2023/02/12 00:59:27;;;;;;;15.85;12.02;;;9.10;86.20;;;;;;6215737;23;20011;-77
2023/02/12 01:01:53;;;;;;;16.08;12.27;;;9.10;86.30;;;;;;6216345;23;20000;-79
2023/02/12 01:04:19;;;;;;;18.05;13.45;;;9.10;86.00;;;;;;6241628;23;20012;-76
2023/02/12 01:06:45;;;;;;;18.33;13.30;;;9.10;86.20;;;;;;6240859;23;20450;-78
2023/02/12 01:09:11;;;;;;;17.23;12.98;;;9.10;86.20;;;;;;6214654;23;20011;-76
2023/02/12 01:11:37;;;;;;;16.38;12.50;;;9.10;86.20;;;;;;6241813;23;20004;-76
2023/02/12 01:14:03;;;;;;;15.55;12.60;;;9.10;86.10;;;;;;6242622;23;20088;-77
2023/02/12 01:16:30;;;;;;;16.70;12.75;;;9.10;86.00;;;;;;6241170;23;20004;-78
2023/02/12 01:18:56;;;;;;;15.98;12.48;;;9.10;86.20;;;;;;6214945;23;20004;-77
2023/02/12 01:21:29;;;;;;;16.10;12.40;;;9.10;86.30;;;;;;6213975;23;20027;-79
2023/02/12 01:23:55;;;;;;;16.85;12.60;;;9.20;86.40;;;;;;6214243;23;20008;-77
2023/02/12 01:26:21;;;;;;;15.63;12.57;;;9.10;86.20;;;;;;6239885;23;20007;-76
2023/02/12 01:28:53;;;;;;;16.02;12.13;;;9.20;86.50;;;;;;6240260;23;20004;-77
2023/02/12 01:31:21;;;;;;;17.05;12.98;;;9.10;86.10;;;;;;6241234;22;20015;-77
2023/02/12 01:33:48;;;;;;;15.77;12.20;;;9.10;86.30;;;;;;6214592;23;20461;-75
2023/02/12 01:36:14;;;;;;;16.17;12.68;;;9.10;86.30;;;;;;6240662;23;20318;-76
2023/02/12 01:38:40;;;;;;;15.18;12.00;;;9.10;86.30;;;;;;6215069;23;20008;-78
2023/02/12 01:41:10;;;;;;;15.30;12.05;;;9.10;86.40;;;;;;6243062;23;20028;-79
2023/02/12 01:43:36;;;;;;;15.50;12.20;;;9.10;86.40;;;;;;6214193;23;20008;-78
2023/02/12 01:46:03;;;;;;;16.65;12.98;;;9.10;86.40;;;;;;6241778;23;20000;-76
2023/02/12 01:48:37;;;;;;;16.08;12.65;;;9.10;86.40;;;;;;6213611;23;20039;-77
2023/02/12 01:51:03;;;;;;;16.05;11.10;;;9.10;86.40;;;;;;6212983;23;20042;-79
2023/02/12 01:53:35;;;;;;;14.63;11.20;;;9.10;86.50;;;;;;6239592;23;20382;-76
2023/02/12 01:56:02;;;;;;;15.18;12.40;;;9.10;86.50;;;;;;6239140;23;20000;-76
2023/02/12 01:58:34;;;;;;;15.55;11.82;;;9.10;86.30;;;;;;6213223;23;20004;-78
2023/02/12 02:01:02;;;;;;;16.52;11.68;;;9.10;86.40;;;;;;6241213;23;20735;-78
2023/02/12 02:03:27;;;;;;;16.27;11.93;;;9.10;86.40;;;;;;6214001;23;20004;-77
2023/02/12 02:05:58;;;;;;;15.68;12.00;;;9.10;86.30;;;;;;6214071;23;20493;-76
2023/02/12 02:08:24;;;;;;;15.07;11.35;;;9.20;86.30;;;;;;6239994;23;20004;-76
2023/02/12 02:10:49;;;;;;;15.40;11.55;;;9.10;86.40;;;;;;6240893;23;20075;-78
2023/02/12 02:16:09;;;;;;;14.20;11.38;;;9.10;86.50;;;;;;6240799;23;20022;-77
2023/02/12 02:18:48;;;;;;;14.63;11.05;;;9.10;86.50;;;;;;6240240;23;20011;-76
2023/02/12 02:21:56;;;;;;;14.75;11.45;;;9.10;86.50;;;;;;6240047;23;20007;-76
2023/02/12 02:24:47;;;;;;;15.05;11.13;;;9.10;86.60;;;;;;6213462;23;20000;-77
2023/02/12 02:27:40;;;;;;;15.35;11.93;;;9.20;86.60;;;;;;6223157;23;20402;-77
2023/02/12 02:30:31;;;;;;;16.23;12.02;;;9.20;86.60;;;;;;6240873;23;20004;-77
2023/02/12 02:33:12;;;;;;;15.30;11.10;;;9.10;86.30;;;;;;6213201;23;20007;-80
2023/02/12 02:35:40;;;;;;;14.70;11.50;;;9.20;86.40;;;;;;6241285;23;20007;-77
2023/02/12 02:38:43;;;;;;;14.15;11.00;;;9.10;86.60;;;;;;6213213;23;20027;-77
2023/02/12 02:41:38;;;;;;;16.75;11.82;;;9.10;86.60;;;;;;6132522;23;20022;-77
2023/02/12 02:44:13;;;;;;;15.38;11.60;;;9.10;86.50;;;;;;6204233;23;20059;-76
2023/02/12 02:46:45;;;;;;;15.95;11.88;;;9.10;86.70;;;;;;6207243;23;20719;-78
2023/02/12 02:49:18;;;;;;;16.13;11.90;;;9.10;86.50;;;;;;6207796;23;20015;-78
2023/02/12 02:51:48;;;;;;;15.65;11.52;;;9.10;86.50;;;;;;6209972;23;20004;-76
2023/02/12 02:54:36;;;;;;;16.25;12.35;;;9.10;86.70;;;;;;6207842;23;20035;-76
2023/02/12 02:57:17;;;;;;;16.98;12.18;;;9.10;86.70;;;;;;6207593;23;20455;-79
2023/02/12 02:59:48;;;;;;;15.45;11.57;;;9.10;86.70;;;;;;6233829;23;20009;-77
2023/02/12 03:02:34;;;;;;;15.25;11.52;;;9.10;86.70;;;;;;6206462;23;20001;-76
2023/02/12 03:05:26;;;;;;;16.52;11.48;;;9.10;86.60;;;;;;6208565;23;20004;-76
2023/02/12 03:08:03;;;;;;;16.25;11.65;;;9.10;86.70;;;;;;6198320;23;20005;-76
2023/02/12 03:10:35;;;;;;;15.25;11.55;;;9.10;86.80;;;;;;6205905;23;20627;-77
2023/02/12 03:13:10;;;;;;;15.35;11.98;;;9.10;86.80;;;;;;6234926;23;20004;-79
2023/02/12 03:15:47;;;;;;;16.42;12.60;;;9.10;86.80;;;;;;6213729;23;20036;-76
2023/02/12 03:18:20;;;;;;;17.48;11.52;;;9.10;86.70;;;;;;6219503;23;20095;-79
2023/02/12 03:20:54;;;;;;;16.73;12.63;;;9.10;86.60;;;;;;6221821;23;20056;-79
2023/02/12 03:23:27;;;;;;;16.02;12.10;;;9.10;86.50;;;;;;6218906;23;20036;-80
2023/02/12 03:26:00;;;;;;;18.23;11.77;;;9.10;86.70;;;;;;6218288;23;20000;-79
2023/02/12 03:28:29;;;;;;;14.85;11.75;;;9.20;86.80;;;;;;6219427;23;20036;-79
2023/02/12 03:31:10;;;;;;;16.38;12.40;;;9.10;86.80;;;;;;6220757;23;20111;-79
2023/02/12 03:33:51;;;;;;;15.68;12.05;;;9.10;86.70;;;;;;6218458;23;20411;-79
2023/02/12 03:36:35;;;;;;;16.02;12.45;;;9.10;86.70;;;;;;6218141;23;20454;-79
2023/02/12 03:39:10;;;;;;;18.13;13.27;;;9.20;86.80;;;;;;6216660;23;20012;-79
2023/02/12 03:42:00;;;;;;;17.23;12.93;;;9.10;86.90;;;;;;6238060;23;20012;-79
2023/02/12 03:44:49;;;;;;;17.38;12.98;;;9.10;86.90;;;;;;6222544;23;20649;-79
2023/02/12 03:47:24;;;;;;;16.73;13.35;;;9.10;86.70;;;;;;6248763;23;20008;-79
2023/02/12 03:50:14;;;;;;;15.30;12.25;;;9.20;86.80;;;;;;6221737;23;20072;-79
2023/02/12 03:52:40;;;;;;;17.52;13.13;;;9.10;86.90;;;;;;6221200;23;20012;-80
2023/02/12 03:55:07;;;;;;;17.10;12.80;;;9.10;86.90;;;;;;6248720;23;20062;-79
2023/02/12 03:57:41;;;;;;;15.90;12.88;;;9.10;86.80;;;;;;6220767;23;20015;-79
2023/02/12 04:00:12;;;;;;;15.65;12.35;;;9.10;86.90;;;;;;6222522;23;20011;-79
2023/02/12 04:02:38;;;;;;;17.67;12.87;;;9.10;86.90;;;;;;6250618;23;19999;-79
2023/02/12 04:05:06;;;;;;;17.70;13.52;;;9.10;86.90;;;;;;6250977;23;20223;-78
2023/02/12 04:07:32;;;;;;;18.42;13.23;;;9.10;86.90;;;;;;6249630;23;20071;-80
2023/02/12 04:09:57;;;;;;;16.23;12.40;;;9.10;86.90;;;;;;6223164;23;20000;-79
2023/02/12 04:12:45;;;;;;;17.10;13.27;;;9.10;86.90;;;;;;6223475;23;20390;-79
2023/02/12 04:15:33;;;;;;;16.23;12.73;;;9.10;86.70;;;;;;6225234;23;20008;-79
2023/02/12 04:18:12;;;;;;;17.80;13.27;;;9.10;86.90;;;;;;6223745;23;20032;-79
2023/02/12 04:20:59;;;;;;;18.08;12.70;;;9.20;86.80;;;;;;6250156;23;20004;-79
2023/02/12 04:23:59;;;;;;;16.48;12.75;;;9.20;86.90;;;;;;6250265;23;19996;-79
2023/02/12 04:26:45;;;;;;;16.02;12.98;;;9.10;86.90;;;;;;6227634;23;20003;-79
2023/02/12 04:29:29;;;;;;;16.80;12.85;;;9.10;87.00;;;;;;6221955;23;20014;-79
2023/02/12 04:32:17;;;;;;;17.88;13.15;;;9.10;87.00;;;;;;6249077;23;20004;-79
2023/02/12 04:34:56;;;;;;;17.38;12.90;;;9.10;87.00;;;;;;6249380;23;20004;-79
2023/02/12 04:37:37;;;;;;;16.15;12.98;;;9.10;87.00;;;;;;6248195;23;20034;-78
2023/02/12 04:40:07;;;;;;;17.52;13.27;;;9.10;87.00;;;;;;6221878;23;20078;-79
2023/02/12 04:42:41;;;;;;;17.38;13.48;;;9.10;87.00;;;;;;6248234;23;20026;-79
2023/02/12 04:45:10;;;;;;;17.20;13.43;;;9.10;86.90;;;;;;6221804;23;20331;-79
2023/02/12 04:47:36;;;;;;;16.98;13.70;;;9.10;86.90;;;;;;6221113;23;20004;-79
2023/02/12 04:50:01;;;;;;;19.15;14.57;;;9.10;87.10;;;;;;6248372;23;20043;-79
2023/02/12 04:52:26;;;;;;;17.95;13.20;;;9.10;87.10;;;;;;6220921;23;20518;-79
2023/02/12 04:54:52;;;;;;;19.02;14.32;;;9.20;87.10;;;;;;6248947;23;20054;-79
2023/02/12 04:57:17;;;;;;;16.40;12.50;;;9.10;87.00;;;;;;6220571;23;20031;-79
2023/02/12 04:59:43;;;;;;;19.17;14.25;;;9.10;86.90;;;;;;6221212;23;20036;-79
2023/02/12 05:02:09;;;;;;;18.42;14.20;;;9.10;87.00;;;;;;6219001;23;19996;-79
2023/02/12 05:04:34;;;;;;;19.50;14.60;;;9.10;87.00;;;;;;6220856;23;20035;-79
2023/02/12 05:06:59;;;;;;;17.95;14.30;;;9.10;87.00;;;;;;6246550;23;19996;-78
2023/02/12 05:09:25;;;;;;;19.13;14.23;;;9.10;87.10;;;;;;6249267;23;20079;-79
2023/02/12 05:11:50;;;;;;;19.00;14.65;;;9.10;87.00;;;;;;6250086;23;20004;-78
2023/02/12 05:14:16;;;;;;;18.85;13.70;;;9.10;87.00;;;;;;6222930;23;20320;-79
2023/02/12 05:16:42;;;;;;;18.52;13.93;;;9.10;87.10;;;;;;6221894;23;20007;-79
2023/02/12 05:19:08;;;;;;;19.23;13.82;;;9.10;86.90;;;;;;6222138;23;20012;-78
2023/02/12 05:21:34;;;;;;;19.52;14.27;;;9.10;87.10;;;;;;6222425;23;20011;-79
2023/02/12 05:24:01;;;;;;;18.98;13.48;;;9.10;87.00;;;;;;6247650;23;20435;-79
2023/02/12 05:26:27;;;;;;;18.92;14.20;;;9.10;87.10;;;;;;6220640;23;20008;-79
2023/02/12 05:28:52;;;;;;;19.73;15.13;;;9.10;87.10;;;;;;6221029;23;20429;-78
2023/02/12 05:31:19;;;;;;;18.95;14.68;;;9.10;87.10;;;;;;6249109;23;20058;-79
2023/02/12 05:33:46;;;;;;;19.00;14.52;;;9.10;87.10;;;;;;6222261;23;20054;-79
2023/02/12 05:36:14;;;;;;;19.77;14.32;;;9.10;87.00;;;;;;6248980;23;20008;-78
2023/02/12 05:38:40;;;;;;;25.05;15.02;;;9.20;87.10;;;;;;6221839;23;20014;-79
2023/02/12 05:41:17;;;;;;;24.17;15.25;;;9.20;87.80;;;;;;6248710;23;20039;-79
2023/02/12 05:43:43;;;;;;;24.92;15.77;;;9.10;87.40;;;;;;6221162;23;20011;-79
2023/02/12 05:46:10;;;;;;;20.95;15.40;;;9.10;87.30;;;;;;6220745;23;20008;-79
2023/02/12 05:48:36;;;;;;;18.77;14.40;;;9.10;87.20;;;;;;6249152;23;20005;-79
2023/02/12 05:51:08;;;;;;;20.65;15.02;;;9.10;87.10;;;;;;6220881;23;20015;-79
2023/02/12 05:53:35;;;;;;;20.15;14.63;;;9.10;87.40;;;;;;6220768;23;20000;-79
2023/02/12 05:56:19;;;;;;;22.23;15.20;;;9.20;87.40;;;;;;6221047;23;20000;-79
2023/02/12 05:58:47;;;;;;;20.50;15.32;;;9.10;87.10;;;;;;6247852;23;20008;-79
2023/02/12 06:01:22;;;;;;;19.00;15.05;;;9.10;87.30;;;;;;6247220;23;19996;-79
2023/02/12 06:03:48;;;;;;;20.52;15.27;;;9.10;87.20;;;;;;6247743;23;19996;-79
2023/02/12 06:06:13;;;;;;;19.15;14.48;;;9.10;87.30;;;;;;6247943;23;20007;-78
2023/02/12 06:08:39;;;;;;;20.73;15.23;;;9.10;87.30;;;;;;6247334;23;20008;-79
2023/02/12 06:11:09;;;;;;;19.23;15.23;;;9.20;87.30;;;;;;6221300;23;20011;-79
2023/02/12 06:13:34;;;;;;;19.35;14.50;;;9.10;87.30;;;;;;6221262;23;20004;-79
2023/02/12 06:16:01;;;;;;;19.38;14.35;;;9.10;87.30;;;;;;6219825;23;20011;-80
2023/02/12 06:18:26;;;;;;;18.92;14.55;;;9.10;87.30;;;;;;6220080;23;20008;-82
2023/02/12 06:20:55;;;;;;;20.17;14.95;;;9.20;87.30;;;;;;6219017;23;20038;-83
2023/02/12 06:23:22;;;;;;;19.77;14.80;;;9.10;87.30;;;;;;6215391;23;20024;-81
2023/02/12 06:25:48;;;;;;;19.88;15.48;;;9.10;87.20;;;;;;6245682;23;20000;-85
2023/02/12 06:28:14;;;;;;;19.23;14.73;;;9.10;87.30;;;;;;6217232;23;20331;-79
2023/02/12 06:30:39;;;;;;;20.88;15.38;;;9.10;87.10;;;;;;6216287;23;20004;-80
2023/02/12 06:33:05;;;;;;;20.83;15.68;;;9.20;87.40;;;;;;6221427;23;20439;-81
2023/02/12 06:35:33;;;;;;;21.88;15.15;;;9.20;87.40;;;;;;6217672;23;20004;-80
2023/02/12 06:37:59;;;;;;;19.70;14.25;;;9.20;87.30;;;;;;6245400;23;20010;-79
2023/02/12 06:40:24;;;;;;;19.67;14.95;;;9.20;87.40;;;;;;6217931;23;20008;-80
2023/02/12 06:42:50;;;;;;;19.00;15.02;;;9.10;87.30;;;;;;6217944;23;20510;-80
2023/02/12 06:45:15;;;;;;;18.13;13.77;;;9.10;87.30;;;;;;6217372;23;20016;-79
2023/02/12 06:47:40;;;;;;;19.45;15.57;;;9.10;87.30;;;;;;6217400;23;20446;-80
2023/02/12 06:50:06;;;;;;;20.02;14.77;;;9.10;87.20;;;;;;6244768;23;20063;-79
2023/02/12 06:52:32;;;;;;;18.73;14.95;;;9.10;87.40;;;;;;6244452;23;20494;-79
2023/02/12 06:54:57;;;;;;;20.25;15.52;;;9.10;87.30;;;;;;6216848;23;20497;-79
2023/02/12 06:57:23;;;;;;;17.83;14.25;;;9.10;87.40;;;;;;6243519;23;20008;-80
2023/02/12 06:59:48;;;;;;;19.42;14.77;;;9.10;87.30;;;;;;6216886;23;20347;-81
2023/02/12 07:02:14;;;;;;;19.23;15.40;;;9.10;87.50;;;;;;6218017;23;20008;-81
2023/02/12 07:04:39;;;;;;;18.75;14.73;;;9.10;87.30;;;;;;6246178;23;20069;-78
2023/02/12 07:07:05;;;;;;;19.60;15.27;;;9.10;87.40;;;;;;6244807;23;20008;-82
2023/02/12 07:09:31;;;;;;;19.35;15.20;;;9.20;87.50;;;;;;6219001;23;20398;-82
2023/02/12 07:11:58;;;;;;;21.80;15.48;;;9.10;87.50;;;;;;6245889;23;20008;-83
2023/02/12 07:14:25;;;;;;;21.02;15.52;;;9.20;87.50;;;;;;6219109;23;20004;-83
2023/02/12 07:16:50;;;;;;;20.95;16.52;;;9.10;87.70;;;;;;6218709;23;20243;-82
2023/02/12 07:19:16;;;;;;;21.20;15.88;;;9.10;87.60;;;;;;6252232;23;20034;-82
2023/02/12 07:21:42;;;;;;;20.30;15.70;;;9.10;87.70;;;;;;6225926;23;20005;-83
2023/02/12 07:24:13;;;;;;;20.52;15.63;;;9.20;87.50;;;;;;6221705;23;20015;-82
2023/02/12 07:26:40;;;;;;;20.60;15.80;;;9.20;87.40;;;;;;6219596;23;20030;-83
2023/02/12 07:29:05;;;;;;;20.60;15.35;;;9.20;87.70;;;;;;6219755;23;20004;-83
2023/02/12 07:31:31;;;;;;;20.00;15.45;;;9.20;87.70;;;;;;6220431;23;20008;-84
2023/02/12 07:33:58;;;;;;;20.67;15.18;;;9.10;87.60;;;;;;6218333;23;20008;-76
2023/02/12 07:36:27;;;;;;;19.67;15.48;;;9.10;87.60;;;;;;6216171;23;20008;-81
2023/02/12 07:38:56;;;;;;;21.25;15.55;;;9.20;87.80;;;;;;6218347;23;20427;-80
2023/02/12 07:41:25;;;;;;;22.08;15.10;;;9.20;87.50;;;;;;6207376;23;20383;-81
2023/02/12 07:43:59;;;;;;;20.95;15.45;;;9.10;87.30;;;;;;6215140;23;20007;-82
2023/02/12 07:46:28;;;;;;;20.98;15.60;;;9.20;87.30;;;;;;6213632;23;20059;-81
2023/02/12 07:48:55;;;;;;;19.45;14.60;;;9.20;87.20;;;;;;6213236;23;20005;-82
2023/02/12 07:51:21;;;;;;;19.67;14.80;;;9.20;87.20;;;;;;6212619;23;20407;-81
2023/02/12 07:53:48;;;;;;;20.05;14.77;;;9.20;87.00;;;;;;6212490;23;20005;-81
2023/02/12 07:56:16;;;;;;;19.10;14.73;;;9.20;86.90;;;;;;6212391;23;20028;-81
2023/02/12 07:58:44;;;;;;;20.20;15.13;;;9.20;86.80;;;;;;6213573;23;20091;-81
2023/02/12 08:01:21;;;;;;;19.25;14.45;;;9.20;86.80;;;;;;6212182;23;20098;-83
2023/02/12 08:03:48;;;;;;;19.65;15.15;;;9.20;86.60;;;;;;6213602;23;20015;-81
2023/02/12 08:06:16;;;;;;;18.90;13.98;;;9.20;86.50;;;;;;6212510;23;20005;-81
2023/02/12 08:08:42;;;;;;;18.13;13.88;;;9.30;86.50;;;;;;6212253;23;20008;-80
2023/02/12 08:11:09;;;;;;;18.70;14.20;;;9.30;86.40;;;;;;6211021;23;20063;-81
2023/02/12 08:13:35;;;;;;;17.67;13.68;;;9.30;86.30;;;;;;6214406;23;20009;-80
2023/02/12 08:16:03;;;;;;;17.35;13.50;;;9.30;86.30;;;;;;6213881;23;20015;-81
2023/02/12 08:18:33;;;;;;;18.58;13.95;;;9.30;86.20;;;;;;6212831;23;20031;-81
2023/02/12 08:21:09;;;;;;;20.00;13.85;;;9.30;86.20;;;;;;6237971;23;20008;-81
2023/02/12 08:23:35;;;;;;;18.45;14.15;;;9.30;86.20;;;;;;6212903;23;20894;-81
2023/02/12 08:26:21;;;;;;;18.27;13.90;;;9.30;86.10;;;;;;6214231;23;20007;-81
2023/02/12 08:28:49;;;;;;;17.77;13.63;;;9.30;86.10;;;;;;6237615;23;20009;-80
2023/02/12 08:31:23;;;;;;;18.40;13.90;;;9.30;86.00;;;;;;6212354;23;20036;-81
2023/02/12 08:33:50;;;;;;;18.08;13.70;;;9.30;86.00;;;;;;6212090;23;20099;-79
2023/02/12 08:36:19;;;;;;;17.83;13.07;;;9.30;85.90;;;;;;6212858;23;20461;-81
2023/02/12 08:38:45;;;;;;;19.75;14.30;;;9.30;85.90;;;;;;6211127;23;20015;-80
2023/02/12 08:41:13;;;;;;;17.67;13.32;;;9.30;85.90;;;;;;6211787;23;20051;-80
2023/02/12 08:43:40;;;;;;;17.52;12.82;;;9.30;85.90;;;;;;6212259;23;20334;-80
2023/02/12 08:46:12;;;;;;;18.40;13.60;;;9.30;85.90;;;;;;6214088;23;20004;-83
2023/02/12 08:48:38;;;;;;;;;;;9.30;85.80;;;;;;6215829;23;20411;-83
2023/02/12 08:51:08;;;;;;;18.00;13.30;;;9.30;85.80;;;;;;6214009;23;19904;-83
2023/02/12 08:53:34;;;;;;;17.85;13.23;;;9.30;85.70;;;;;;6214454;23;20047;-86
2023/02/12 08:55:59;;;;;;;17.48;13.32;;;9.30;85.70;;;;;;6214093;23;20020;-84
2023/02/12 08:58:25;;;;;;;17.85;13.25;;;9.30;85.70;;;;;;6214407;23;20665;-82
2023/02/12 09:00:51;;;;;;;17.20;12.73;;;9.30;85.70;;;;;;6213986;23;20496;-81
2023/02/12 09:03:16;;;;;;;18.02;12.98;;;9.30;85.60;;;;;;6215071;23;20027;-80
2023/02/12 09:05:42;;;;;;;17.77;13.07;;;9.30;85.60;;;;;;6213379;23;19996;-80
2023/02/12 09:08:08;;;;;;;17.17;13.07;;;9.30;85.60;;;;;;6215628;23;19993;-80
2023/02/12 09:10:37;;;;;;;18.33;13.15;;;9.30;85.60;;;;;;6214359;23;20304;-82
2023/02/12 09:13:02;;;;;;;16.33;12.82;;;9.30;85.60;;;;;;6214795;23;20815;-82
2023/02/12 09:15:28;;;;;;;16.90;12.82;;;9.30;85.60;;;;;;6213996;23;20001;-80
2023/02/12 09:17:53;;;;;;;18.30;13.60;;;9.30;85.50;;;;;;6215319;23;20313;-81
2023/02/12 09:20:19;;;;;;;16.98;13.13;;;9.30;85.50;;;;;;6214170;23;20035;-80
2023/02/12 09:22:44;;;;;;;15.73;12.30;;;9.30;85.50;;;;;;6214105;23;20001;-80
2023/02/12 09:25:10;;;;;;;16.50;12.35;;;9.30;85.50;;;;;;6212627;23;20078;-80
2023/02/12 09:27:35;;;;;;;15.95;12.30;;;9.30;85.50;;;;;;6213215;23;19996;-80
2023/02/12 09:30:01;;;;;;;16.58;12.18;;;9.30;85.40;;;;;;6238227;23;20059;-79
2023/02/12 09:32:26;;;;;;;16.90;12.07;;;9.30;85.40;;;;;;6215043;23;20475;-81
2023/02/12 09:34:52;;;;;;;16.08;12.50;;;9.40;86.00;;;;;;6214058;23;19997;-80
2023/02/12 09:37:17;;;;;;;16.33;12.23;;;9.30;85.40;;;;;;6238276;23;20004;-81
2023/02/12 09:39:43;;;;;;;16.65;12.35;;;9.40;85.40;;;;;;6213345;23;20420;-81
2023/02/12 09:43:01;;;;;;;15.90;11.85;;;9.40;85.40;;;;;;6212964;23;20020;-81
2023/02/12 09:45:32;;;;;;;16.15;11.90;;;9.30;85.40;;;;;;6163716;23;20446;-81
2023/02/12 09:48:31;;;;;;;16.23;12.30;;;9.40;85.40;;;;;;6225385;23;20024;-81
2023/02/12 09:51:02;;;;;;;16.25;12.05;;;9.40;85.40;;;;;;6193438;23;20053;-80
2023/02/12 09:53:30;;;;;;;16.27;11.73;;;9.40;85.30;;;;;;6216363;23;20486;-80
2023/02/12 09:55:56;;;;;;;14.80;11.45;;;9.40;85.30;;;;;;6215202;23;20435;-80
2023/02/12 09:58:37;;;;;;;15.95;11.68;;;9.40;85.30;;;;;;6215499;23;20011;-81
2023/02/12 10:01:21;;;;;;;15.93;11.80;;;9.40;85.30;;;;;;6215541;23;20034;-83
2023/02/12 10:03:50;;;;;;;15.07;11.50;;;9.40;85.30;;;;;;6217957;23;20825;-80
2023/02/12 10:06:25;;;;;;;15.68;11.77;;;9.40;85.20;;;;;;6213634;23;20051;-83
2023/02/12 10:09:00;;;;;;;15.52;11.57;;;9.40;85.20;;;;;;6210002;23;20008;-79
2023/02/12 10:11:35;;;;;;;15.73;11.73;;;9.40;85.10;;;;;;6212547;23;20387;-80
2023/02/12 10:14:31;;;;;;;16.00;12.10;;;9.40;85.10;;;;;;6237837;23;20014;-79
2023/02/12 10:17:02;;;;;;;16.35;12.02;;;9.40;85.10;;;;;;6240310;23;20008;-80
2023/02/12 10:19:51;;;;;;;15.52;11.60;;;9.40;85.10;;;;;;6216116;23;20391;-84
2023/02/12 10:22:46;;;;;;;15.30;11.80;;;9.40;85.00;;;;;;6223069;23;20001;-85
2023/02/12 10:25:34;;;;;;;15.43;11.38;;;9.40;85.00;;;;;;6210654;23;20023;-84
2023/02/12 10:28:07;;;;;;;14.80;11.32;;;9.40;85.10;;;;;;6222284;23;20012;-83
2023/02/12 10:30:59;;;;;;;15.45;11.55;;;9.40;85.00;;;;;;6223784;23;19997;-84
2023/02/12 10:33:47;;;;;;;15.07;11.40;;;9.40;85.00;;;;;;6224060;23;20049;-85
2023/02/12 10:36:28;;;;;;;15.90;11.50;;;9.40;85.00;;;;;;6225806;23;20079;-84
2023/02/12 10:39:11;;;;;;;15.57;11.48;;;9.40;85.00;;;;;;6227586;23;20035;-84
2023/02/12 10:41:54;;;;;;;14.52;10.95;;;9.40;85.00;;;;;;6226882;23;20008;-84
2023/02/12 10:44:20;;;;;;;14.23;10.68;;;9.40;85.00;;;;;;6250456;23;20035;-85
2023/02/12 10:46:45;;;;;;;14.38;11.15;;;9.40;85.00;;;;;;6225709;23;20000;-85
2023/02/12 10:49:14;;;;;;;15.05;11.52;;;9.40;85.00;;;;;;6224742;23;20007;-85
2023/02/12 10:51:55;;;;;;;15.55;11.18;;;9.40;85.00;;;;;;6225140;23;20035;-85
2023/02/12 10:54:37;;;;;;;14.77;10.85;;;9.40;85.00;;;;;;6225564;23;20015;-85
2023/02/12 10:57:23;;;;;;;14.95;11.07;;;9.40;85.00;;;;;;6222998;23;20008;-84
2023/02/12 10:59:52;;;;;;;14.40;10.85;;;9.40;85.00;;;;;;6223503;23;20028;-85
2023/02/12 11:02:23;;;;;;;15.57;11.57;;;9.40;85.00;;;;;;6222200;23;20005;-81
2023/02/12 11:04:50;;;;;;;14.37;11.00;;;9.50;85.00;;;;;;6222119;23;20004;-82
2023/02/12 11:07:15;;;;;;;15.05;10.95;;;9.40;85.00;;;;;;6219468;23;20005;-82
2023/02/12 11:09:46;;;;;;;15.48;11.15;;;9.40;85.00;;;;;;6219966;23;20016;-83
2023/02/12 11:12:39;;;;;;;14.68;10.82;;;9.40;85.00;;;;;;6221767;23;20007;-82
2023/02/12 11:15:17;;;;;;;14.00;10.65;;;9.40;84.90;;;;;;6218335;23;20031;-81
2023/02/12 11:17:53;;;;;;;15.82;11.95;;;9.40;84.90;;;;;;6215372;23;20442;-82
2023/02/12 11:20:22;;;;;;;15.85;11.43;;;9.40;85.10;;;;;;6216692;23;20058;-82
2023/02/12 11:23:00;;;;;;;18.48;11.32;;;9.50;85.50;;;;;;6218167;23;20075;-84
2023/02/12 11:25:30;;;;;;;16.33;11.38;;;9.40;85.40;;;;;;6219401;23;20007;-83
2023/02/12 11:28:11;;;;;;;17.33;11.13;;;9.40;85.40;;;;;;6219879;23;19997;-82
2023/02/12 11:31:10;;;;;;;15.85;11.30;;;9.40;85.40;;;;;;6217178;23;20008;-82
2023/02/12 11:33:36;;;;;;;16.67;11.02;;;9.40;85.40;;;;;;6215913;23;20000;-82
2023/02/12 11:36:22;;;;;;;15.57;11.07;;;9.40;85.80;;;;;;6214662;23;20015;-82
2023/02/12 11:38:53;;;;;;;14.85;10.95;;;9.50;85.30;;;;;;6215128;23;20009;-82
2023/02/12 11:41:38;;;;;;;15.23;10.82;;;9.50;85.30;;;;;;6217247;23;20058;-82
2023/02/12 11:44:20;;;;;;;15.95;11.38;;;9.50;85.30;;;;;;6217661;23;20001;-82
2023/02/12 11:46:53;;;;;;;18.55;11.27;;;9.50;85.30;;;;;;6216683;23;20008;-82
2023/02/12 11:49:22;;;;;;;15.25;11.18;;;9.50;85.20;;;;;;6217614;23;20008;-82
2023/02/12 11:51:48;;;;;;;16.30;11.20;;;9.50;85.10;;;;;;6215560;23;20009;-82
2023/02/12 11:54:24;;;;;;;15.20;11.10;;;9.50;85.20;;;;;;6216542;23;20004;-82
2023/02/12 11:56:50;;;;;;;15.60;10.82;;;9.50;85.10;;;;;;6215906;23;20052;-81
2023/02/12 11:59:34;;;;;;;13.70;10.13;;;9.50;85.10;;;;;;6215848;23;20000;-81
2023/02/12 12:02:10;;;;;;;16.58;10.95;;;9.50;85.10;;;;;;6215662;23;20371;-81
2023/02/12 12:04:38;;;;;;;16.60;10.95;;;9.50;85.10;;;;;;6216737;23;20005;-82
2023/02/12 12:07:19;;;;;;;15.77;10.55;;;9.50;85.10;;;;;;6241704;23;20424;-80
2023/02/12 12:09:59;;;;;;;14.98;10.48;;;9.50;85.10;;;;;;6215684;23;20001;-81
2023/02/12 12:12:39;;;;;;;14.32;10.63;;;9.50;85.10;;;;;;6216520;23;20005;-82
2023/02/12 12:21:10;;;;;;;14.82;10.40;;;9.50;85.00;;;;;;6217755;23;20016;-77
2023/02/12 12:23:42;;;;;;;15.93;10.70;;;9.50;85.00;;;;;;6215055;23;20019;-79
2023/02/12 12:26:25;;;;;;;15.73;9.77;;;9.50;85.00;;;;;;6240274;23;20008;-76
2023/02/12 12:29:05;;;;;;;14.48;10.20;;;9.50;85.00;;;;;;6213763;23;20347;-81
2023/02/12 12:31:39;;;;;;;13.25;9.63;;;9.50;84.90;;;;;;6216189;23;20342;-82
2023/02/12 12:34:13;;;;;;;14.23;10.02;;;9.50;84.90;;;;;;6216107;23;20344;-80
2023/02/12 12:36:46;;;;;;;14.93;9.85;;;9.50;84.90;;;;;;6214464;23;20313;-81
2023/02/12 12:39:35;;;;;;;15.98;9.98;;;9.50;85.00;;;;;;6215044;23;20039;-80
2023/02/12 12:42:19;;;;;;;17.13;10.63;;;9.50;85.10;;;;;;6242207;23;20038;-82
2023/02/12 12:45:04;;;;;;;15.25;10.63;;;9.50;85.20;;;;;;6220648;23;20008;-81
2023/02/12 12:47:36;;;;;;;18.42;10.93;;;9.50;85.10;;;;;;6220445;23;20031;-81
2023/02/12 12:50:27;;;;;;;14.32;10.07;;;9.60;84.80;;;;;;6218513;23;20004;-77
2023/02/12 12:53:06;;;;;;;;;;;9.70;84.60;;;;;;6246376;23;20508;-81
2023/02/12 12:55:51;;;;;;;14.50;9.70;;;9.70;84.80;;;;;;6219697;23;20246;-82
2023/02/12 12:58:29;;;;;;;16.00;9.52;;;9.70;84.20;;;;;;6217347;23;20004;-81
2023/02/12 13:01:31;;;;;;;14.13;9.63;;;9.70;84.10;;;;;;6249381;23;20002;-81
2023/02/12 13:04:25;;;;;;;15.75;10.38;;;9.70;84.10;;;;;;6252620;23;19996;-82
2023/02/12 13:07:02;;;;;;;19.30;10.00;;;9.70;84.10;;;;;;6251639;23;20028;-82
2023/02/12 13:09:56;;;;;;;14.38;9.70;;;9.70;84.20;;;;;;6251641;23;20001;-81
2023/02/12 13:12:57;;;;;;;15.85;9.40;;;9.60;84.20;;;;;;6167199;23;20027;-79